Kalamazoo, Michigan
Current Conditions -  °F | °C
As of 2:53 PM on Thursday 18 Dec 2014 (Local Time) from KAZO Reporting Station
Overcast Overcast  
Wind Chill: 21°   Ceiling: 1200
Heat Index: 30°   Visibility: 10mi
Dew Point: 24°   Wind: 12mph
Humidity: 79%   Direction: 260°W
Pressure: 30.18"   Gusts: NA
Location:  42.29°N, 85.6°W
Report Text: KAZO 181953Z 26010KT 10SM OVC012 M01/M04 A3018 RMK AO2 SLP232 T10111044
Loading
Personal Weather Stations






























Interactive Weather Map New forecast layout! Learn more

10-Day Weather Forecast

Advertisements
Track Severe Weather on mobile